createdAt,value
2018-11-06T00:00:13.102Z,99.90
2018-11-06T00:02:40.962Z,99.90
2018-11-06T00:05:11.902Z,99.90
2018-11-06T00:07:39.851Z,99.90
2018-11-06T00:10:07.866Z,99.90
2018-11-06T00:12:35.432Z,99.90
2018-11-06T00:15:03.068Z,99.90
2018-11-06T00:17:30.757Z,99.90
2018-11-06T00:19:58.277Z,99.90
2018-11-06T00:22:25.801Z,99.90
2018-11-06T00:24:53.462Z,99.90
2018-11-06T00:27:21.015Z,99.90
2018-11-06T00:29:48.545Z,99.90
2018-11-06T00:32:16.085Z,99.90
2018-11-06T00:34:43.577Z,99.90
2018-11-06T00:37:11.163Z,99.90
2018-11-06T00:39:38.751Z,99.90
2018-11-06T00:42:06.433Z,99.90
2018-11-06T00:44:33.978Z,99.90
2018-11-06T00:47:01.509Z,99.90
2018-11-06T00:49:29.084Z,99.90
2018-11-06T00:51:56.637Z,99.90
2018-11-06T00:54:24.253Z,99.90
2018-11-06T00:56:51.773Z,99.90
2018-11-06T00:59:19.304Z,99.90
2018-11-06T01:01:46.823Z,99.90
2018-11-06T01:04:14.421Z,99.90
2018-11-06T01:06:42.187Z,99.90
2018-11-06T01:09:11.255Z,99.90
2018-11-06T01:11:39.143Z,99.90
2018-11-06T01:14:07.027Z,99.90
2018-11-06T01:16:34.598Z,99.90
2018-11-06T01:19:02.269Z,99.90
2018-11-06T01:21:29.826Z,99.90
2018-11-06T01:23:57.354Z,99.90
2018-11-06T01:26:24.958Z,99.90
2018-11-06T01:28:52.486Z,99.90
2018-11-06T01:31:20.020Z,99.90
2018-11-06T01:33:47.548Z,99.90
2018-11-06T01:36:15.088Z,99.90
2018-11-06T01:38:42.656Z,99.90
2018-11-06T01:41:10.266Z,99.90
2018-11-06T01:43:37.877Z,99.90
2018-11-06T01:46:05.654Z,99.90
2018-11-06T01:48:33.517Z,99.90
2018-11-06T01:51:01.032Z,99.90
2018-11-06T01:53:28.546Z,99.90
2018-11-06T01:55:56.160Z,99.90
2018-11-06T01:58:23.741Z,99.90
2018-11-06T02:00:51.334Z,99.90
2018-11-06T02:03:18.853Z,99.90
2018-11-06T02:05:46.381Z,99.90
2018-11-06T02:08:13.957Z,99.90
2018-11-06T02:10:41.536Z,99.90
2018-11-06T02:13:09.208Z,99.90
2018-11-06T02:15:36.791Z,99.90
2018-11-06T02:18:04.772Z,99.90
2018-11-06T02:20:32.297Z,99.90
2018-11-06T02:22:59.857Z,99.90
2018-11-06T02:25:27.379Z,99.90
2018-11-06T02:27:54.973Z,99.90
2018-11-06T02:30:22.523Z,99.90
2018-11-06T02:32:50.096Z,99.90
2018-11-06T02:35:17.662Z,99.90
2018-11-06T02:37:45.181Z,99.90
2018-11-06T02:40:13.736Z,99.90
2018-11-06T02:42:41.675Z,99.90
2018-11-06T02:45:10.145Z,99.90
2018-11-06T02:47:37.827Z,99.90
2018-11-06T02:50:05.907Z,99.90
2018-11-06T02:52:33.475Z,99.90
2018-11-06T02:55:01.049Z,99.90
2018-11-06T02:57:28.579Z,99.90
2018-11-06T02:59:56.164Z,99.90
2018-11-06T03:02:23.755Z,99.90
2018-11-06T03:04:51.335Z,99.90
2018-11-06T03:07:18.969Z,99.90
2018-11-06T03:09:46.555Z,99.90
2018-11-06T03:12:14.179Z,99.90
2018-11-06T03:14:41.817Z,99.90
2018-11-06T03:17:09.425Z,99.90
2018-11-06T03:19:37.017Z,99.90
2018-11-06T03:22:04.572Z,99.90
2018-11-06T03:24:32.251Z,99.90
2018-11-06T03:26:59.880Z,99.90
2018-11-06T03:29:27.327Z,99.90
2018-11-06T03:31:54.975Z,99.90
2018-11-06T03:34:22.513Z,99.90
2018-11-06T03:36:49.925Z,99.90
2018-11-06T03:39:17.447Z,99.90
2018-11-06T03:41:45.011Z,99.90
2018-11-06T03:44:12.508Z,99.90
2018-11-06T03:46:40.156Z,99.90
2018-11-06T03:49:07.767Z,99.90
2018-11-06T03:51:35.381Z,99.90
2018-11-06T03:54:02.922Z,99.90
2018-11-06T03:56:30.452Z,99.90
2018-11-06T03:58:57.987Z,99.90
2018-11-06T04:01:25.552Z,99.90
2018-11-06T04:03:53.284Z,99.90
2018-11-06T04:06:20.828Z,99.90
2018-11-06T04:08:48.397Z,99.90
2018-11-06T04:11:15.928Z,99.90
2018-11-06T04:13:43.442Z,99.90
2018-11-06T04:16:11.016Z,99.90
2018-11-06T04:18:38.578Z,99.90
2018-11-06T04:21:06.203Z,99.90
2018-11-06T04:23:33.722Z,99.90
2018-11-06T04:26:01.281Z,99.90
2018-11-06T04:28:28.794Z,99.90
2018-11-06T04:30:56.381Z,99.90
2018-11-06T04:33:23.942Z,99.90
2018-11-06T04:35:51.484Z,99.90
2018-11-06T04:38:19.025Z,99.90
2018-11-06T04:40:46.556Z,99.90
2018-11-06T04:43:14.122Z,99.90
2018-11-06T04:45:41.674Z,99.90
2018-11-06T04:48:09.301Z,99.90
2018-11-06T04:50:36.934Z,99.90
2018-11-06T04:53:04.536Z,99.90
2018-11-06T04:55:32.116Z,99.90
2018-11-06T04:57:59.642Z,99.90
2018-11-06T05:00:27.223Z,99.90
2018-11-06T05:02:54.792Z,99.90
2018-11-06T05:05:22.336Z,99.90
2018-11-06T05:07:49.855Z,99.90
2018-11-06T05:10:17.394Z,99.90
2018-11-06T05:12:44.921Z,99.90
2018-11-06T05:15:13.663Z,99.90
2018-11-06T05:17:41.230Z,99.90
2018-11-06T05:20:10.855Z,99.90
2018-11-06T05:22:38.434Z,99.90
2018-11-06T05:25:06.550Z,99.90
2018-11-06T05:27:34.231Z,99.90
2018-11-06T05:30:01.674Z,99.90
2018-11-06T05:32:29.222Z,99.90
2018-11-06T05:34:56.841Z,99.90
2018-11-06T05:37:24.381Z,99.90
2018-11-06T05:40:03.238Z,99.90
2018-11-06T05:42:30.745Z,99.90
2018-11-06T05:44:58.328Z,99.90
2018-11-06T05:47:25.907Z,99.90
2018-11-06T05:49:53.537Z,99.90
2018-11-06T05:52:21.099Z,99.90
2018-11-06T05:54:48.741Z,99.90
2018-11-06T05:57:16.325Z,99.90
2018-11-06T05:59:43.901Z,99.90
2018-11-06T06:02:11.505Z,99.90
2018-11-06T06:04:39.159Z,99.90
2018-11-06T06:07:06.827Z,99.90
2018-11-06T06:09:34.460Z,99.90
2018-11-06T06:12:02.034Z,99.90
2018-11-06T06:14:29.519Z,99.90
2018-11-06T06:16:57.248Z,99.90
2018-11-06T06:19:24.693Z,99.90
2018-11-06T06:21:52.232Z,99.90
2018-11-06T06:24:19.817Z,99.90
2018-11-06T06:26:47.391Z,99.90
2018-11-06T06:29:14.951Z,99.90
2018-11-06T06:31:42.498Z,99.90
2018-11-06T06:34:10.151Z,99.90
2018-11-06T06:36:37.750Z,99.90
2018-11-06T06:39:06.501Z,99.90
2018-11-06T06:41:34.076Z,99.90
2018-11-06T06:44:01.728Z,99.90
2018-11-06T06:46:32.228Z,99.90
2018-11-06T06:48:59.781Z,99.90
2018-11-06T06:51:27.388Z,99.40
2018-11-06T06:53:55.054Z,99.60
2018-11-06T06:56:22.600Z,99.90
2018-11-06T06:58:50.125Z,99.20
2018-11-06T07:01:17.661Z,99.30
2018-11-06T07:03:45.215Z,99.80
2018-11-06T07:06:12.774Z,99.90
2018-11-06T07:08:40.489Z,99.90
2018-11-06T07:11:08.214Z,99.90
2018-11-06T07:13:35.857Z,99.90
2018-11-06T07:16:03.450Z,99.90
2018-11-06T07:18:31.133Z,99.90
2018-11-06T07:20:58.785Z,99.90
2018-11-06T07:23:26.413Z,99.90
2018-11-06T07:25:54.040Z,99.90
2018-11-06T07:28:21.619Z,99.90
2018-11-06T07:30:49.165Z,99.90
2018-11-06T07:33:16.736Z,99.90
2018-11-06T07:35:44.508Z,99.90
2018-11-06T07:38:11.891Z,99.90
2018-11-06T07:40:39.703Z,99.90
2018-11-06T07:43:07.354Z,99.90
2018-11-06T07:45:34.949Z,99.90
2018-11-06T07:48:02.515Z,99.90
2018-11-06T07:50:30.094Z,99.90
2018-11-06T07:52:57.642Z,99.90
2018-11-06T07:55:25.284Z,99.90
2018-11-06T07:57:52.787Z,99.90
2018-11-06T08:00:22.859Z,99.90
2018-11-06T08:02:50.705Z,99.90
2018-11-06T08:05:18.325Z,99.90
2018-11-06T08:07:46.702Z,99.90
2018-11-06T08:10:14.247Z,99.90
2018-11-06T08:12:43.914Z,99.90
2018-11-06T08:15:12.144Z,99.60
2018-11-06T08:17:40.060Z,99.50
2018-11-06T08:20:07.798Z,99.60
2018-11-06T08:22:35.432Z,99.80
2018-11-06T08:25:03.200Z,99.90
2018-11-06T08:27:30.996Z,99.90
2018-11-06T08:29:58.596Z,99.90
2018-11-06T08:32:26.480Z,99.90
2018-11-06T08:34:53.818Z,99.90
2018-11-06T08:37:21.411Z,99.90
2018-11-06T08:39:48.996Z,99.90
2018-11-06T08:42:16.655Z,99.90
2018-11-06T08:44:44.208Z,99.70
2018-11-06T08:47:11.803Z,99.50
2018-11-06T08:49:39.404Z,99.30
2018-11-06T08:52:07.224Z,99.00
2018-11-06T08:54:35.181Z,98.80
2018-11-06T08:57:02.719Z,98.40
2018-11-06T08:59:30.312Z,98.00
2018-11-06T09:01:57.980Z,97.70
2018-11-06T09:04:25.534Z,97.30
2018-11-06T09:06:53.112Z,97.10
2018-11-06T09:09:20.679Z,96.80
2018-11-06T09:11:48.571Z,96.50
2018-11-06T09:14:16.182Z,96.60
2018-11-06T09:16:43.722Z,96.40
2018-11-06T09:19:11.298Z,96.30
2018-11-06T09:21:38.837Z,95.90
2018-11-06T09:24:06.430Z,95.20
2018-11-06T09:26:34.150Z,94.50
2018-11-06T09:29:01.770Z,93.80
2018-11-06T09:31:29.530Z,93.40
2018-11-06T09:33:58.390Z,93.10
2018-11-06T09:36:26.242Z,92.90
2018-11-06T09:38:53.773Z,92.70
2018-11-06T09:41:21.407Z,92.60
2018-11-06T09:43:48.914Z,91.90
2018-11-06T09:46:16.519Z,91.70
2018-11-06T09:48:44.132Z,91.40
2018-11-06T09:51:11.737Z,90.80
2018-11-06T09:53:39.261Z,90.60
2018-11-06T09:56:06.937Z,90.40
2018-11-06T09:58:34.481Z,90.10
2018-11-06T10:01:02.065Z,89.20
2018-11-06T10:03:29.700Z,88.70
2018-11-06T10:05:57.317Z,87.80
2018-11-06T10:08:25.031Z,87.20
2018-11-06T10:10:52.546Z,87.10
2018-11-06T10:13:20.097Z,86.50
2018-11-06T10:15:47.718Z,86.30
2018-11-06T10:18:15.233Z,85.70
2018-11-06T10:20:42.812Z,85.50
2018-11-06T10:23:10.374Z,84.20
2018-11-06T10:25:37.944Z,84.10
2018-11-06T10:28:05.486Z,83.10
2018-11-06T10:30:33.107Z,83.00
2018-11-06T10:33:00.739Z,84.30
2018-11-06T10:35:28.410Z,83.90
2018-11-06T10:37:56.459Z,82.90
2018-11-06T10:40:24.003Z,82.00
2018-11-06T10:42:51.602Z,81.10
2018-11-06T10:45:19.848Z,81.60
2018-11-06T10:47:47.806Z,82.00
2018-11-06T10:50:16.123Z,81.50
2018-11-06T10:52:44.316Z,81.60
2018-11-06T10:55:11.854Z,82.00
2018-11-06T10:57:40.024Z,81.70
2018-11-06T11:00:15.673Z,80.90
2018-11-06T11:02:48.817Z,80.50
2018-11-06T11:05:16.674Z,79.30
2018-11-06T11:07:44.212Z,79.30
2018-11-06T11:10:11.917Z,79.30
2018-11-06T11:12:40.581Z,79.50
2018-11-06T11:15:08.045Z,79.80
2018-11-06T11:17:35.640Z,78.80
2018-11-06T11:20:03.462Z,78.80
2018-11-06T11:22:32.024Z,78.50
2018-11-06T11:24:59.776Z,78.20
2018-11-06T11:27:27.391Z,78.50
2018-11-06T11:29:55.074Z,79.40
2018-11-06T11:32:22.666Z,79.30
2018-11-06T11:34:50.225Z,79.40
2018-11-06T11:37:17.850Z,79.30
2018-11-06T11:39:45.394Z,79.00
2018-11-06T11:42:12.980Z,78.60
2018-11-06T11:44:40.542Z,78.10
2018-11-06T11:47:08.076Z,77.80
2018-11-06T11:49:35.586Z,77.80
2018-11-06T11:52:03.254Z,76.90
2018-11-06T11:54:30.964Z,77.10
2018-11-06T11:56:58.579Z,76.50
2018-11-06T11:59:26.180Z,76.20
2018-11-06T12:01:53.753Z,75.20
2018-11-06T12:04:21.279Z,75.20
2018-11-06T12:06:48.827Z,75.20
2018-11-06T12:09:16.418Z,75.30
2018-11-06T12:11:44.032Z,75.60
2018-11-06T12:14:11.592Z,76.30
2018-11-06T12:16:39.135Z,76.60
2018-11-06T12:19:06.665Z,76.40
2018-11-06T12:21:34.245Z,76.10
2018-11-06T12:24:01.923Z,76.30
2018-11-06T12:26:29.613Z,76.60
2018-11-06T12:28:57.257Z,76.00
2018-11-06T12:31:27.703Z,75.80
2018-11-06T12:33:55.232Z,75.80
2018-11-06T12:36:22.783Z,75.30
2018-11-06T12:38:50.319Z,75.20
2018-11-06T12:41:17.898Z,75.70
2018-11-06T12:43:45.449Z,75.80
2018-11-06T12:46:13.029Z,75.70
2018-11-06T12:48:40.604Z,75.90
2018-11-06T12:51:08.358Z,76.40
2018-11-06T12:53:35.928Z,77.00
2018-11-06T12:56:03.554Z,77.20
2018-11-06T12:58:31.261Z,77.30
2018-11-06T13:00:58.895Z,77.70
2018-11-06T13:03:26.513Z,77.70
2018-11-06T13:05:54.144Z,77.70
2018-11-06T13:08:21.685Z,77.20
2018-11-06T13:10:49.253Z,77.60
2018-11-06T13:13:16.876Z,77.60
2018-11-06T13:15:44.595Z,77.70
2018-11-06T13:18:12.059Z,77.60
2018-11-06T13:20:39.652Z,78.30
2018-11-06T13:23:07.220Z,78.50
2018-11-06T13:25:34.883Z,77.80
2018-11-06T13:28:02.512Z,78.50
2018-11-06T13:30:30.144Z,82.70
2018-11-06T13:32:57.821Z,85.40
2018-11-06T13:35:25.411Z,87.30
2018-11-06T13:37:52.985Z,89.20
2018-11-06T13:40:20.526Z,90.30
2018-11-06T13:42:48.281Z,90.90
2018-11-06T13:45:18.458Z,91.30
2018-11-06T13:47:45.994Z,91.40
2018-11-06T13:50:13.569Z,91.80
2018-11-06T13:52:41.130Z,92.20
2018-11-06T13:55:10.034Z,92.50
2018-11-06T13:57:37.533Z,92.80
2018-11-06T14:00:09.076Z,93.10
2018-11-06T14:02:36.687Z,93.20
2018-11-06T14:05:04.738Z,93.30
2018-11-06T14:07:32.320Z,93.40
2018-11-06T14:09:59.965Z,93.40
2018-11-06T14:12:27.586Z,93.50
2018-11-06T14:14:55.151Z,93.60
2018-11-06T14:17:22.739Z,93.60
2018-11-06T14:19:50.332Z,93.60
2018-11-06T14:22:17.892Z,93.50
2018-11-06T14:24:45.475Z,93.40
2018-11-06T14:27:13.115Z,93.30
2018-11-06T14:29:41.099Z,93.30
2018-11-06T14:32:08.638Z,93.10
2018-11-06T14:34:36.213Z,93.00
2018-11-06T14:37:03.814Z,93.20
2018-11-06T14:39:31.449Z,93.00
2018-11-06T14:41:59.082Z,92.80
2018-11-06T14:44:26.673Z,92.60
2018-11-06T14:46:54.257Z,92.60
2018-11-06T14:49:22.175Z,92.60
2018-11-06T14:51:49.691Z,92.70
2018-11-06T14:54:17.287Z,92.80
2018-11-06T14:56:44.863Z,93.10
2018-11-06T14:59:12.467Z,93.50
2018-11-06T15:01:40.029Z,93.90
2018-11-06T15:04:07.595Z,94.10
2018-11-06T15:06:35.213Z,94.40
2018-11-06T15:09:04.106Z,94.70
2018-11-06T15:11:32.439Z,95.00
2018-11-06T15:14:00.118Z,95.30
2018-11-06T15:16:28.042Z,95.60
2018-11-06T15:18:55.651Z,95.80
2018-11-06T15:21:29.854Z,96.20
2018-11-06T15:23:57.632Z,96.50
2018-11-06T15:26:25.206Z,96.90
2018-11-06T15:28:52.791Z,97.10
2018-11-06T15:31:20.362Z,97.30
2018-11-06T15:33:47.986Z,97.50
2018-11-06T15:36:15.501Z,97.60
2018-11-06T15:41:10.968Z,97.70
2018-11-06T15:43:38.494Z,98.20
2018-11-06T15:46:06.297Z,98.30
2018-11-06T15:48:34.055Z,98.60
2018-11-06T15:51:01.667Z,98.90
2018-11-06T15:53:29.308Z,99.40
2018-11-06T15:55:57.168Z,99.90
2018-11-06T15:58:24.718Z,99.90
2018-11-06T16:00:52.383Z,99.90
2018-11-06T16:03:19.920Z,99.90
2018-11-06T16:05:47.579Z,99.90
2018-11-06T16:08:15.190Z,99.90
2018-11-06T16:10:42.754Z,99.90
2018-11-06T16:13:10.366Z,99.90
2018-11-06T16:15:37.935Z,99.90
2018-11-06T16:18:05.669Z,99.90
2018-11-06T16:20:33.313Z,99.90
2018-11-06T16:23:01.038Z,99.90
2018-11-06T16:25:28.730Z,99.90
2018-11-06T16:27:56.419Z,99.90
2018-11-06T16:30:23.992Z,99.90
2018-11-06T16:32:51.548Z,99.90
2018-11-06T16:35:20.429Z,99.90
2018-11-06T16:37:48.423Z,99.90
2018-11-06T16:40:16.573Z,99.90
2018-11-06T16:42:44.846Z,99.90
2018-11-06T16:45:14.788Z,99.90
2018-11-06T16:47:43.828Z,99.90
2018-11-06T16:50:13.290Z,99.90
2018-11-06T16:52:41.249Z,99.90
2018-11-06T16:55:09.473Z,99.90
2018-11-06T16:57:37.897Z,99.90
2018-11-06T17:00:06.988Z,99.90
2018-11-06T17:02:34.677Z,99.90
2018-11-06T17:05:02.669Z,99.90
2018-11-06T17:07:30.443Z,99.90
2018-11-06T17:09:58.299Z,99.90
2018-11-06T17:12:26.071Z,99.90
2018-11-06T17:14:53.791Z,99.90
2018-11-06T17:17:21.415Z,99.90
2018-11-06T17:19:49.081Z,99.90
2018-11-06T17:22:16.734Z,99.90
2018-11-06T17:24:44.359Z,99.90
2018-11-06T17:27:12.015Z,99.90
2018-11-06T17:29:39.697Z,99.90
2018-11-06T17:32:07.352Z,99.90
2018-11-06T17:34:34.999Z,99.90
2018-11-06T17:37:02.626Z,99.90
2018-11-06T17:39:30.443Z,99.90
2018-11-06T17:41:58.374Z,99.90
2018-11-06T17:44:26.036Z,99.90
2018-11-06T17:46:53.783Z,99.90
2018-11-06T17:49:21.446Z,99.90
2018-11-06T17:51:49.123Z,99.90
2018-11-06T17:54:16.840Z,99.90
2018-11-06T17:56:44.536Z,99.90
2018-11-06T17:59:12.231Z,99.90
2018-11-06T18:01:39.890Z,99.90
2018-11-06T18:04:07.731Z,99.90
2018-11-06T18:06:35.344Z,99.90
2018-11-06T18:09:04.201Z,99.90
2018-11-06T18:11:31.913Z,99.90
2018-11-06T18:13:59.714Z,99.90
2018-11-06T18:16:27.365Z,99.90
2018-11-06T18:18:54.935Z,99.90
2018-11-06T18:21:22.573Z,99.90
2018-11-06T18:23:50.183Z,99.90
2018-11-06T18:26:18.252Z,99.90
2018-11-06T18:28:45.962Z,99.90
2018-11-06T18:31:13.664Z,99.90
2018-11-06T18:33:41.399Z,99.90
2018-11-06T18:36:09.192Z,99.90
2018-11-06T18:38:37.141Z,99.90
2018-11-06T18:41:04.919Z,99.90
2018-11-06T18:43:33.277Z,99.90
2018-11-06T18:46:01.033Z,99.90
2018-11-06T18:48:28.884Z,99.90
2018-11-06T18:50:56.936Z,99.90
2018-11-06T18:53:24.891Z,99.90
2018-11-06T18:55:53.471Z,99.90
2018-11-06T18:58:21.124Z,99.90
2018-11-06T19:00:48.864Z,99.90
2018-11-06T19:03:17.350Z,99.90
2018-11-06T19:05:45.078Z,99.90
2018-11-06T19:08:12.730Z,99.90
2018-11-06T19:10:40.470Z,99.90
2018-11-06T19:13:08.763Z,99.90
2018-11-06T19:15:36.441Z,99.90
2018-11-06T19:18:04.792Z,99.90
2018-11-06T19:20:32.483Z,99.90
2018-11-06T19:23:00.269Z,99.90
2018-11-06T19:25:28.723Z,99.90
2018-11-06T19:27:56.443Z,99.90
2018-11-06T19:30:24.209Z,99.90
2018-11-06T19:32:52.541Z,99.90
2018-11-06T19:35:20.682Z,99.90
2018-11-06T19:37:48.777Z,99.90
2018-11-06T19:40:17.089Z,99.90
2018-11-06T19:42:46.332Z,99.90
2018-11-06T19:45:14.469Z,99.90
2018-11-06T19:47:42.836Z,99.90
2018-11-06T19:50:13.525Z,99.90
2018-11-06T19:52:42.077Z,99.90
2018-11-06T19:55:11.680Z,99.90
2018-11-06T19:57:40.161Z,99.90
2018-11-06T20:00:11.360Z,99.90
2018-11-06T20:02:40.236Z,99.90
2018-11-06T20:05:08.133Z,99.90
2018-11-06T20:07:36.086Z,99.90
2018-11-06T20:10:04.221Z,99.90
2018-11-06T20:12:32.340Z,99.90
2018-11-06T20:15:00.788Z,99.90
2018-11-06T20:17:29.542Z,99.90
2018-11-06T20:19:59.680Z,99.90
2018-11-06T20:22:28.632Z,99.90
2018-11-06T20:24:56.711Z,99.90
2018-11-06T20:27:24.641Z,99.90
2018-11-06T20:29:53.393Z,99.90
2018-11-06T20:32:21.123Z,99.90
2018-11-06T20:34:48.909Z,99.90
2018-11-06T20:37:17.597Z,99.90
2018-11-06T20:39:45.432Z,99.90
2018-11-06T20:42:14.135Z,99.90
2018-11-06T20:44:41.851Z,99.90
2018-11-06T20:47:09.680Z,99.90
2018-11-06T20:49:37.401Z,99.90
2018-11-06T20:52:08.082Z,99.90
2018-11-06T20:54:36.391Z,99.90
2018-11-06T20:57:04.733Z,99.90
2018-11-06T20:59:32.509Z,99.90
2018-11-06T21:02:00.269Z,99.90
2018-11-06T21:04:28.157Z,99.90
2018-11-06T21:06:56.000Z,99.90
2018-11-06T21:09:25.310Z,99.90
2018-11-06T21:11:53.128Z,99.90
2018-11-06T21:14:20.748Z,99.90
2018-11-06T21:16:49.226Z,99.90
2018-11-06T21:19:17.114Z,99.90
2018-11-06T21:21:44.802Z,99.90
2018-11-06T21:24:12.989Z,99.90
2018-11-06T21:26:40.745Z,99.90
2018-11-06T21:29:09.609Z,99.90
2018-11-06T21:31:37.674Z,99.90
2018-11-06T21:34:05.578Z,99.90
2018-11-06T21:36:33.460Z,99.90
2018-11-06T21:39:01.204Z,99.90
2018-11-06T21:41:29.160Z,99.90
2018-11-06T21:43:56.905Z,99.90
2018-11-06T21:46:24.621Z,99.90
2018-11-06T21:48:54.616Z,99.90
2018-11-06T21:51:22.355Z,99.90
2018-11-06T21:53:49.995Z,99.90
2018-11-06T21:56:17.692Z,99.90
2018-11-06T21:58:45.540Z,99.90
2018-11-06T22:01:13.211Z,99.90
2018-11-06T22:03:40.805Z,99.90
2018-11-06T22:06:08.421Z,99.90
2018-11-06T22:08:36.331Z,99.90
2018-11-06T22:11:04.121Z,99.90
2018-11-06T22:13:31.793Z,99.90
2018-11-06T22:15:59.507Z,99.90
2018-11-06T22:18:27.148Z,99.90
2018-11-06T22:20:54.819Z,99.90
2018-11-06T22:23:22.423Z,99.90
2018-11-06T22:25:49.997Z,99.90
2018-11-06T22:28:17.589Z,99.90
2018-11-06T22:30:45.265Z,99.90
2018-11-06T22:33:12.852Z,99.90
2018-11-06T22:35:40.416Z,99.90
2018-11-06T22:38:08.044Z,99.90
2018-11-06T22:40:35.623Z,99.90
2018-11-06T22:43:03.278Z,99.90
2018-11-06T22:45:30.893Z,99.90
2018-11-06T22:47:58.493Z,99.90
2018-11-06T22:50:26.067Z,99.90
2018-11-06T22:52:53.598Z,99.90
2018-11-06T22:55:21.153Z,99.90
2018-11-06T22:57:48.803Z,99.90
2018-11-06T23:00:18.611Z,99.90
2018-11-06T23:02:46.173Z,99.90
2018-11-06T23:05:14.126Z,99.90
2018-11-06T23:07:47.280Z,99.90
2018-11-06T23:10:14.885Z,99.90
2018-11-06T23:12:42.652Z,99.90
2018-11-06T23:15:10.266Z,99.90
2018-11-06T23:17:37.812Z,99.90
2018-11-06T23:20:05.847Z,99.90
2018-11-06T23:22:33.522Z,99.90
2018-11-06T23:25:01.235Z,99.90
2018-11-06T23:27:28.876Z,99.90
2018-11-06T23:29:56.401Z,99.90
2018-11-06T23:32:24.007Z,99.90
2018-11-06T23:34:51.584Z,99.90
2018-11-06T23:37:19.142Z,99.90
2018-11-06T23:39:46.691Z,99.90
2018-11-06T23:42:14.248Z,99.90
2018-11-06T23:44:41.778Z,99.90
2018-11-06T23:47:09.357Z,99.90
2018-11-06T23:49:36.933Z,99.90
2018-11-06T23:52:04.732Z,99.90
2018-11-06T23:54:32.341Z,99.90
2018-11-06T23:56:59.971Z,99.90
2018-11-06T23:59:27.588Z,99.90
